createdAt,value
2023-04-11T00:00:34.730Z,0.00
2023-04-11T00:01:34.798Z,0.00
2023-04-11T00:02:34.858Z,0.00
2023-04-11T00:03:35.066Z,0.00
2023-04-11T00:04:34.893Z,0.00
2023-04-11T00:05:34.688Z,0.00
2023-04-11T00:06:34.667Z,0.00
2023-04-11T00:07:34.665Z,0.00
2023-04-11T00:08:34.636Z,0.00
2023-04-11T00:09:34.622Z,0.00
2023-04-11T00:10:34.628Z,0.00
2023-04-11T00:11:34.599Z,0.00
2023-04-11T00:12:34.608Z,0.00
2023-04-11T00:13:34.595Z,0.00
2023-04-11T00:14:34.584Z,0.00
2023-04-11T00:15:34.561Z,0.00
2023-04-11T00:16:34.619Z,0.00
2023-04-11T00:17:34.550Z,0.00
2023-04-11T00:18:34.537Z,0.00
2023-04-11T00:19:34.548Z,0.00
2023-04-11T00:20:34.500Z,0.00
2023-04-11T00:21:34.505Z,0.00
2023-04-11T00:22:34.488Z,0.00
2023-04-11T00:23:34.461Z,0.00
2023-04-11T00:24:34.497Z,0.00
2023-04-11T00:25:34.458Z,0.00
2023-04-11T00:26:34.427Z,0.00
2023-04-11T00:27:34.415Z,0.00
2023-04-11T00:28:34.432Z,0.00
2023-04-11T00:29:34.391Z,0.00
2023-04-11T00:30:34.402Z,0.00
2023-04-11T00:31:34.389Z,0.00
2023-04-11T00:32:34.395Z,0.00
2023-04-11T00:33:34.364Z,0.00
2023-04-11T00:34:34.342Z,0.00
2023-04-11T00:35:34.609Z,0.00
2023-04-11T00:36:34.384Z,0.00
2023-04-11T00:37:34.321Z,0.00
2023-04-11T00:38:34.310Z,0.00
2023-04-11T00:39:34.294Z,0.00
2023-04-11T00:40:34.293Z,0.00
2023-04-11T00:41:34.254Z,0.00
2023-04-11T00:42:34.253Z,0.00
2023-04-11T00:43:34.248Z,0.00
2023-04-11T00:44:34.239Z,0.00
2023-04-11T00:45:34.235Z,0.00
2023-04-11T00:46:34.209Z,0.00
2023-04-11T00:47:34.218Z,0.00
2023-04-11T00:48:35.295Z,0.00
2023-04-11T00:49:34.239Z,0.00
2023-04-11T00:50:34.176Z,0.00
2023-04-11T00:51:34.157Z,0.00
2023-04-11T00:52:34.138Z,0.00
2023-04-11T00:53:34.136Z,0.00
2023-04-11T00:54:34.152Z,0.00
2023-04-11T00:55:34.112Z,0.00
2023-04-11T00:56:34.091Z,0.00
2023-04-11T00:57:34.085Z,0.00
2023-04-11T00:58:34.075Z,0.00
2023-04-11T00:59:34.084Z,0.00
2023-04-11T01:00:34.035Z,0.00
2023-04-11T01:01:34.051Z,0.00
2023-04-11T01:02:34.138Z,0.00
2023-04-11T01:03:34.146Z,0.00
2023-04-11T01:04:34.020Z,0.00
2023-04-11T01:05:33.985Z,0.00
2023-04-11T01:06:33.972Z,0.00
2023-04-11T01:07:33.985Z,0.00
2023-04-11T01:08:33.969Z,0.00
2023-04-11T01:09:33.953Z,0.00
2023-04-11T01:10:33.950Z,0.00
2023-04-11T01:11:33.911Z,0.00
2023-04-11T01:12:33.924Z,0.00
2023-04-11T01:13:33.889Z,0.00
2023-04-11T01:14:33.877Z,0.00
2023-04-11T01:15:33.868Z,0.00
2023-04-11T01:16:33.954Z,0.00
2023-04-11T01:17:33.951Z,0.00
2023-04-11T01:18:33.861Z,0.00
2023-04-11T01:19:33.828Z,0.00
2023-04-11T01:20:33.815Z,0.00
2023-04-11T01:21:33.800Z,0.00
2023-04-11T01:22:33.823Z,0.00
2023-04-11T01:23:33.793Z,0.00
2023-04-11T01:24:33.791Z,0.00
2023-04-11T01:25:33.781Z,0.00
2023-04-11T01:26:33.849Z,0.00
2023-04-11T01:27:33.734Z,0.00
2023-04-11T01:28:33.742Z,0.00
2023-04-11T01:29:33.727Z,0.00
2023-04-11T01:30:33.713Z,0.00
2023-04-11T01:31:33.700Z,0.00
2023-04-11T01:32:33.727Z,0.00
2023-04-11T01:33:33.686Z,0.00
2023-04-11T01:34:33.704Z,0.00
2023-04-11T01:35:33.683Z,0.00
2023-04-11T01:36:33.633Z,0.00
2023-04-11T01:37:33.683Z,0.00
2023-04-11T01:38:33.612Z,0.00
2023-04-11T01:39:33.596Z,0.00
2023-04-11T01:40:33.621Z,0.00
2023-04-11T01:41:33.598Z,0.00
2023-04-11T01:42:33.571Z,0.00
2023-04-11T01:43:33.546Z,0.00
2023-04-11T01:44:33.534Z,0.00
2023-04-11T01:45:33.530Z,0.00
2023-04-11T01:46:33.548Z,0.00
2023-04-11T01:47:33.599Z,0.00
2023-04-11T01:48:33.610Z,0.00
2023-04-11T01:49:33.496Z,0.00
2023-04-11T01:50:33.472Z,0.00
2023-04-11T01:51:33.476Z,0.00
2023-04-11T01:52:33.460Z,0.00
2023-04-11T01:53:33.434Z,0.00
2023-04-11T01:54:33.466Z,0.00
2023-04-11T01:55:33.428Z,0.00
2023-04-11T01:56:33.420Z,0.00
2023-04-11T01:57:33.411Z,0.00
2023-04-11T01:58:33.393Z,0.00
2023-04-11T01:59:33.423Z,0.00
2023-04-11T02:00:33.494Z,0.00
2023-04-11T02:01:33.400Z,0.00
2023-04-11T02:02:33.402Z,0.00
2023-04-11T02:03:33.448Z,0.00
2023-04-11T02:04:33.330Z,0.00
2023-04-11T02:05:33.402Z,0.00
2023-04-11T02:06:33.320Z,0.00
2023-04-11T02:07:33.278Z,0.00
2023-04-11T02:08:33.263Z,0.00
2023-04-11T02:09:33.256Z,0.00
2023-04-11T02:10:33.241Z,0.00
2023-04-11T02:11:33.255Z,0.00
2023-04-11T02:12:33.217Z,0.00
2023-04-11T02:13:33.228Z,0.00
2023-04-11T02:14:33.196Z,0.00
2023-04-11T02:15:33.238Z,0.00
2023-04-11T02:16:33.206Z,0.00
2023-04-11T02:17:33.201Z,0.00
2023-04-11T02:18:33.147Z,0.00
2023-04-11T02:19:33.139Z,0.00
2023-04-11T02:20:33.127Z,0.00
2023-04-11T02:21:33.126Z,0.00
2023-04-11T02:22:33.102Z,0.00
2023-04-11T02:23:33.105Z,0.00
2023-04-11T02:24:33.101Z,0.00
2023-04-11T02:25:33.089Z,0.00
2023-04-11T02:26:33.056Z,0.00
2023-04-11T02:27:33.042Z,0.00
2023-04-11T02:28:33.035Z,0.00
2023-04-11T02:29:33.058Z,0.00
2023-04-11T02:30:33.019Z,0.00
2023-04-11T02:31:33.022Z,0.00
2023-04-11T02:32:33.035Z,0.00
2023-04-11T02:33:33.026Z,0.00
2023-04-11T02:34:32.972Z,0.00
2023-04-11T02:35:32.989Z,0.00
2023-04-11T02:36:32.944Z,0.00
2023-04-11T02:37:32.929Z,0.00
2023-04-11T02:38:33.322Z,0.00
2023-04-11T02:39:32.906Z,0.00
2023-04-11T02:40:40.174Z,0.00
2023-04-11T02:41:32.895Z,0.00
2023-04-11T02:42:32.888Z,0.00
2023-04-11T02:43:40.063Z,0.00
2023-04-11T02:44:40.510Z,0.00
2023-04-11T02:45:40.209Z,0.00
2023-04-11T02:46:40.063Z,0.00
2023-04-11T02:47:40.078Z,0.00
2023-04-11T02:48:39.954Z,0.00
2023-04-11T02:49:40.034Z,0.00
2023-04-11T02:50:32.814Z,0.00
2023-04-11T02:51:32.776Z,0.00
2023-04-11T02:52:32.821Z,0.00
2023-04-11T02:53:32.756Z,0.00
2023-04-11T02:54:32.834Z,0.00
2023-04-11T02:55:32.748Z,0.00
2023-04-11T02:56:32.716Z,0.00
2023-04-11T02:57:32.741Z,0.00
2023-04-11T02:58:32.694Z,0.00
2023-04-11T02:59:32.688Z,0.00
2023-04-11T03:00:32.693Z,0.00
2023-04-11T03:01:32.705Z,0.00
2023-04-11T03:02:32.791Z,0.00
2023-04-11T03:03:32.730Z,0.00
2023-04-11T03:04:32.760Z,0.00
2023-04-11T03:05:32.636Z,0.00
2023-04-11T03:06:32.599Z,0.00
2023-04-11T03:07:32.612Z,0.00
2023-04-11T03:08:32.617Z,0.00
2023-04-11T03:09:32.567Z,0.00
2023-04-11T03:10:32.557Z,0.00
2023-04-11T03:11:32.552Z,0.00
2023-04-11T03:12:32.554Z,0.00
2023-04-11T03:13:32.521Z,0.00
2023-04-11T03:14:32.507Z,0.00
2023-04-11T03:15:32.628Z,0.00
2023-04-11T03:16:32.562Z,0.00
2023-04-11T03:17:32.543Z,0.00
2023-04-11T03:18:32.465Z,0.00
2023-04-11T03:19:32.459Z,0.00
2023-04-11T03:20:32.466Z,0.00
2023-04-11T03:21:32.451Z,0.00
2023-04-11T03:22:32.441Z,0.00
2023-04-11T03:23:32.423Z,0.00
2023-04-11T03:24:32.399Z,0.00
2023-04-11T03:25:32.391Z,0.00
2023-04-11T03:26:32.403Z,0.00
2023-04-11T03:27:32.387Z,0.00
2023-04-11T03:28:32.367Z,0.00
2023-04-11T03:29:32.350Z,0.00
2023-04-11T03:30:32.338Z,0.00
2023-04-11T03:31:32.399Z,0.00
2023-04-11T03:32:32.351Z,0.00
2023-04-11T03:33:32.321Z,0.00
2023-04-11T03:34:32.289Z,0.00
2023-04-11T03:35:32.284Z,0.00
2023-04-11T03:36:32.265Z,0.00
2023-04-11T03:37:32.321Z,0.00
2023-04-11T03:38:32.243Z,0.00
2023-04-11T03:39:32.229Z,0.00
2023-04-11T03:40:32.235Z,0.00
2023-04-11T03:41:32.216Z,0.00
2023-04-11T03:42:32.198Z,0.00
2023-04-11T03:43:32.196Z,0.00
2023-04-11T03:44:32.172Z,0.00
2023-04-11T03:45:32.186Z,0.00
2023-04-11T03:46:32.192Z,0.00
2023-04-11T03:47:32.192Z,0.00
2023-04-11T03:48:32.155Z,0.00
2023-04-11T03:49:32.118Z,0.00
2023-04-11T03:50:32.127Z,0.00
2023-04-11T03:51:32.093Z,0.00
2023-04-11T03:52:32.093Z,0.00
2023-04-11T03:53:32.085Z,0.00
2023-04-11T03:54:32.075Z,0.00
2023-04-11T03:55:32.072Z,0.00
2023-04-11T03:56:32.044Z,0.00
2023-04-11T03:57:32.022Z,0.00
2023-04-11T03:58:32.031Z,0.00
2023-04-11T03:59:32.013Z,0.00
2023-04-11T04:00:31.991Z,0.00
2023-04-11T04:01:32.041Z,0.00
2023-04-11T04:02:32.168Z,0.00
2023-04-11T04:03:32.173Z,0.00
2023-04-11T04:04:32.048Z,0.00
2023-04-11T04:05:31.940Z,0.00
2023-04-11T04:06:31.923Z,0.00
2023-04-11T04:07:31.956Z,0.00
2023-04-11T04:08:31.903Z,0.00
2023-04-11T04:09:31.890Z,4.00
2023-04-11T04:10:31.877Z,4.00
2023-04-11T04:11:31.900Z,0.00
2023-04-11T04:12:31.850Z,0.00
2023-04-11T04:13:31.851Z,4.00
2023-04-11T04:14:31.857Z,4.00
2023-04-11T04:15:31.821Z,4.00
2023-04-11T04:16:31.824Z,4.00
2023-04-11T04:17:31.907Z,4.00
2023-04-11T04:18:31.785Z,4.00
2023-04-11T04:19:31.776Z,8.00
2023-04-11T04:20:31.787Z,4.00
2023-04-11T04:21:31.752Z,8.00
2023-04-11T04:22:31.758Z,8.00
2023-04-11T04:23:31.737Z,8.00
2023-04-11T04:24:31.736Z,8.00
2023-04-11T04:25:31.740Z,12.00
2023-04-11T04:26:31.707Z,12.00
2023-04-11T04:27:31.702Z,12.00
2023-04-11T04:28:31.725Z,16.00
2023-04-11T04:29:31.669Z,16.00
2023-04-11T04:30:31.651Z,16.00
2023-04-11T04:31:31.701Z,16.00
2023-04-11T04:32:31.747Z,16.00
2023-04-11T04:33:31.677Z,20.00
2023-04-11T04:34:31.624Z,20.00
2023-04-11T04:35:31.648Z,20.00
2023-04-11T04:36:31.602Z,20.00
2023-04-11T04:37:31.582Z,24.00
2023-04-11T04:38:31.561Z,20.00
2023-04-11T04:39:31.556Z,20.00
2023-04-11T04:40:31.535Z,20.00
2023-04-11T04:41:31.559Z,20.00
2023-04-11T04:42:31.515Z,24.00
2023-04-11T04:43:31.516Z,24.00
2023-04-11T04:44:31.507Z,24.00
2023-04-11T04:45:31.536Z,28.00
2023-04-11T04:46:31.470Z,28.00
2023-04-11T04:47:31.516Z,28.00
2023-04-11T04:48:31.451Z,32.00
2023-04-11T04:49:31.449Z,32.00
2023-04-11T04:50:31.437Z,28.00
2023-04-11T04:51:31.429Z,32.00
2023-04-11T04:52:31.425Z,32.00
2023-04-11T04:53:31.419Z,36.00
2023-04-11T04:54:31.384Z,40.00
2023-04-11T04:55:31.403Z,40.00
2023-04-11T04:56:31.364Z,44.00
2023-04-11T04:57:31.359Z,48.00
2023-04-11T04:58:31.336Z,48.00
2023-04-11T04:59:31.336Z,44.00
2023-04-11T05:00:31.335Z,44.00
2023-04-11T05:01:31.346Z,44.00
2023-04-11T05:02:31.357Z,44.00
2023-04-11T05:03:31.389Z,44.00
2023-04-11T05:04:31.326Z,48.00
2023-04-11T05:05:31.273Z,52.00
2023-04-11T05:06:31.253Z,60.00
2023-04-11T05:07:31.245Z,68.00
2023-04-11T05:08:31.269Z,72.00
2023-04-11T05:09:31.215Z,88.00
2023-04-11T05:10:31.200Z,96.00
2023-04-11T05:11:31.252Z,108.00
2023-04-11T05:12:31.196Z,116.00
2023-04-11T05:13:31.215Z,124.00
2023-04-11T05:14:31.153Z,140.00
2023-04-11T05:15:31.172Z,152.00
2023-04-11T05:16:31.331Z,164.00
2023-04-11T05:17:31.200Z,172.00
2023-04-11T05:18:31.136Z,176.00
2023-04-11T05:19:31.099Z,168.00
2023-04-11T05:20:31.091Z,160.00
2023-04-11T05:21:31.081Z,140.00
2023-04-11T05:22:31.064Z,120.00
2023-04-11T05:23:31.081Z,108.00
2023-04-11T05:24:31.061Z,92.00
2023-04-11T05:25:31.030Z,84.00
2023-04-11T05:26:31.052Z,84.00
2023-04-11T05:27:31.008Z,84.00
2023-04-11T05:28:30.997Z,92.00
2023-04-11T05:29:30.999Z,88.00
2023-04-11T05:30:31.020Z,80.00
2023-04-11T05:31:30.981Z,76.00
2023-04-11T05:32:31.005Z,80.00
2023-04-11T05:33:30.957Z,80.00
2023-04-11T05:34:30.930Z,92.00
2023-04-11T05:35:31.062Z,100.00
2023-04-11T05:36:30.911Z,104.00
2023-04-11T05:37:30.912Z,108.00
2023-04-11T05:38:30.882Z,108.00
2023-04-11T05:39:30.894Z,116.00
2023-04-11T05:40:30.893Z,120.00
2023-04-11T05:41:30.889Z,108.00
2023-04-11T05:42:30.844Z,108.00
2023-04-11T05:43:30.843Z,116.00
2023-04-11T05:44:30.843Z,128.00
2023-04-11T05:45:30.805Z,136.00
2023-04-11T05:46:30.895Z,152.00
2023-04-11T05:47:30.807Z,168.00
2023-04-11T05:48:30.819Z,192.00
2023-04-11T05:49:30.906Z,220.00
2023-04-11T05:50:30.818Z,228.00
2023-04-11T05:51:30.756Z,228.00
2023-04-11T05:52:30.749Z,228.00
2023-04-11T05:53:30.740Z,204.00
2023-04-11T05:54:30.710Z,188.00
2023-04-11T05:55:30.733Z,196.00
2023-04-11T05:56:30.708Z,208.00
2023-04-11T05:57:30.672Z,216.00
2023-04-11T05:58:30.662Z,216.00
2023-04-11T05:59:30.665Z,200.00
2023-04-11T06:00:30.681Z,152.00
2023-04-11T06:01:30.654Z,128.00
2023-04-11T06:02:30.766Z,124.00
2023-04-11T06:03:30.816Z,136.00
2023-04-11T06:04:30.729Z,156.00
2023-04-11T06:05:30.577Z,176.00
2023-04-11T06:06:30.596Z,188.00
2023-04-11T06:07:30.551Z,196.00
2023-04-11T06:08:30.555Z,216.00
2023-04-11T06:09:32.019Z,252.00
2023-04-11T06:10:30.610Z,268.00
2023-04-11T06:11:30.510Z,272.00
2023-04-11T06:12:30.524Z,256.00
2023-04-11T06:13:30.486Z,236.00
2023-04-11T06:14:30.478Z,232.00
2023-04-11T06:15:30.498Z,232.00
2023-04-11T06:16:30.593Z,248.00
2023-04-11T06:17:30.532Z,260.00
2023-04-11T06:18:30.529Z,260.00
2023-04-11T06:19:30.437Z,268.00
2023-04-11T06:20:30.480Z,280.00
2023-04-11T06:21:30.392Z,296.00
2023-04-11T06:22:30.408Z,324.00
2023-04-11T06:23:30.375Z,368.00
2023-04-11T06:24:30.444Z,388.00
2023-04-11T06:25:30.350Z,380.00
2023-04-11T06:26:30.354Z,392.00
2023-04-11T06:27:30.436Z,400.00
2023-04-11T06:28:30.333Z,464.00
2023-04-11T06:29:30.304Z,532.00
2023-04-11T06:30:30.352Z,524.00
2023-04-11T06:31:30.317Z,520.00
2023-04-11T06:32:30.361Z,496.00
2023-04-11T06:33:30.258Z,436.00
2023-04-11T06:34:30.271Z,376.00
2023-04-11T06:35:30.374Z,324.00
2023-04-11T06:36:30.262Z,328.00
2023-04-11T06:37:30.210Z,388.00
2023-04-11T06:38:30.197Z,408.00
2023-04-11T06:39:30.192Z,400.00
2023-04-11T06:40:30.241Z,412.00
2023-04-11T06:41:30.203Z,436.00
2023-04-11T06:42:30.165Z,528.00
2023-04-11T06:43:30.141Z,520.00
2023-04-11T06:44:30.222Z,416.00
2023-04-11T06:45:30.135Z,404.00
2023-04-11T06:46:30.133Z,376.00
2023-04-11T06:47:30.156Z,388.00
2023-04-11T06:48:30.126Z,384.00
2023-04-11T06:49:30.082Z,340.00
2023-04-11T06:50:30.066Z,344.00
2023-04-11T06:51:30.055Z,380.00
2023-04-11T06:52:30.045Z,400.00
2023-04-11T06:53:30.059Z,392.00
2023-04-11T06:54:30.053Z,436.00
2023-04-11T06:55:30.008Z,524.00
2023-04-11T06:56:29.995Z,496.00
2023-04-11T06:57:29.988Z,460.00
2023-04-11T06:58:29.972Z,492.00
2023-04-11T06:59:29.983Z,508.00
2023-04-11T07:00:29.972Z,508.00
2023-04-11T07:01:29.964Z,548.00
2023-04-11T07:02:30.113Z,552.00
2023-04-11T07:03:30.025Z,596.00
2023-04-11T07:04:29.990Z,628.00
2023-04-11T07:05:29.893Z,656.00
2023-04-11T07:06:29.892Z,692.00
2023-04-11T07:07:29.872Z,720.00
2023-04-11T07:08:29.875Z,764.00
2023-04-11T07:09:29.846Z,812.00
2023-04-11T07:10:29.855Z,872.00
2023-04-11T07:11:29.841Z,960.00
2023-04-11T07:12:29.826Z,1044.00
2023-04-11T07:13:29.829Z,1116.00
2023-04-11T07:14:29.828Z,1160.00
2023-04-11T07:15:29.775Z,1164.00
2023-04-11T07:16:29.951Z,1108.00
2023-04-11T07:17:29.990Z,1004.00
2023-04-11T07:18:29.757Z,900.00
2023-04-11T07:19:29.742Z,832.00
2023-04-11T07:20:29.742Z,816.00
2023-04-11T07:21:29.737Z,840.00
2023-04-11T07:22:29.700Z,852.00
2023-04-11T07:23:29.691Z,876.00
2023-04-11T07:24:29.712Z,932.00
2023-04-11T07:25:29.666Z,984.00
2023-04-11T07:26:29.680Z,1032.00
2023-04-11T07:27:29.660Z,1084.00
2023-04-11T07:28:29.629Z,1116.00
2023-04-11T07:29:29.620Z,1148.00
2023-04-11T07:30:29.613Z,1180.00
2023-04-11T07:31:29.667Z,1208.00
2023-04-11T07:32:29.659Z,1236.00
2023-04-11T07:33:29.576Z,1244.00
2023-04-11T07:34:29.577Z,1220.00
2023-04-11T07:35:29.553Z,1200.00
2023-04-11T07:36:29.548Z,1184.00
2023-04-11T07:37:29.524Z,1176.00
2023-04-11T07:38:29.612Z,1192.00
2023-04-11T07:39:29.518Z,1216.00
2023-04-11T07:40:29.495Z,1244.00
2023-04-11T07:41:29.480Z,1272.00
2023-04-11T07:42:29.484Z,1296.00
2023-04-11T07:43:30.450Z,1336.00
2023-04-11T07:44:29.469Z,1368.00
2023-04-11T07:45:29.452Z,1400.00
2023-04-11T07:46:29.422Z,1416.00
2023-04-11T07:47:29.433Z,1428.00
2023-04-11T07:48:29.450Z,1412.00
2023-04-11T07:49:29.384Z,1388.00
2023-04-11T07:50:29.381Z,1412.00
2023-04-11T07:51:29.380Z,1488.00
2023-04-11T07:52:30.011Z,1600.00
2023-04-11T07:53:29.337Z,1720.00
2023-04-11T07:54:29.336Z,1824.00
2023-04-11T07:55:29.372Z,1892.00
2023-04-11T07:56:29.307Z,1888.00
2023-04-11T07:57:29.299Z,1876.00
2023-04-11T07:58:29.289Z,1840.00
2023-04-11T07:59:29.301Z,1772.00
2023-04-11T08:00:29.261Z,1728.00
2023-04-11T08:01:29.276Z,1696.00
2023-04-11T08:02:29.393Z,1700.00
2023-04-11T08:03:29.438Z,1700.00
2023-04-11T08:04:29.463Z,1752.00
2023-04-11T08:05:29.244Z,1784.00
2023-04-11T08:06:29.341Z,1816.00
2023-04-11T08:07:29.207Z,1868.00
2023-04-11T08:08:29.170Z,1964.00
2023-04-11T08:09:29.180Z,2100.00
2023-04-11T08:10:29.184Z,2292.00
2023-04-11T08:11:29.151Z,2508.00
2023-04-11T08:12:29.132Z,2764.00
2023-04-11T08:13:29.138Z,2952.00
2023-04-11T08:14:29.106Z,3136.00
2023-04-11T08:15:29.114Z,3104.00
2023-04-11T08:16:29.147Z,3148.00
2023-04-11T08:17:29.400Z,3052.00
2023-04-11T08:18:29.067Z,2960.00
2023-04-11T08:19:29.110Z,2780.00
2023-04-11T08:20:29.238Z,2632.00
2023-04-11T08:21:29.066Z,2472.00
2023-04-11T08:22:29.017Z,2392.00
2023-04-11T08:23:29.032Z,2428.00
2023-04-11T08:24:29.003Z,2472.00
2023-04-11T08:25:29.014Z,2304.00
2023-04-11T08:26:29.131Z,2132.00
2023-04-11T08:27:28.960Z,1912.00
2023-04-11T08:28:28.976Z,1588.00
2023-04-11T08:29:28.942Z,1240.00
2023-04-11T08:30:28.973Z,1100.00
2023-04-11T08:31:28.949Z,1164.00
2023-04-11T08:32:28.927Z,1276.00
2023-04-11T08:33:28.916Z,1416.00
2023-04-11T08:34:28.884Z,1544.00
2023-04-11T08:35:28.868Z,1588.00
2023-04-11T08:36:28.880Z,1476.00
2023-04-11T08:37:28.891Z,1324.00
2023-04-11T08:38:28.865Z,1152.00
2023-04-11T08:39:29.020Z,1020.00
2023-04-11T08:40:28.841Z,980.00
2023-04-11T08:41:28.825Z,1008.00
2023-04-11T08:42:28.796Z,1112.00
2023-04-11T08:43:28.793Z,1252.00
2023-04-11T08:44:28.765Z,1388.00
2023-04-11T08:45:28.763Z,1464.00
2023-04-11T08:46:28.806Z,1516.00
2023-04-11T08:47:28.809Z,1712.00
2023-04-11T08:48:28.727Z,1976.00
2023-04-11T08:49:28.734Z,2188.00
2023-04-11T08:50:28.704Z,2076.00
2023-04-11T08:51:28.711Z,2048.00
2023-04-11T08:52:28.696Z,1932.00
2023-04-11T08:53:28.693Z,1984.00
2023-04-11T08:54:28.661Z,1944.00
2023-04-11T08:55:28.657Z,1660.00
2023-04-11T08:56:28.654Z,1624.00
2023-04-11T08:57:28.616Z,1692.00
2023-04-11T08:58:28.634Z,1660.00
2023-04-11T08:59:28.598Z,1720.00
2023-04-11T09:00:28.590Z,1780.00
2023-04-11T09:01:28.625Z,1932.00
2023-04-11T09:02:28.701Z,2112.00
2023-04-11T09:03:28.580Z,2260.00
2023-04-11T09:04:28.610Z,2644.00
2023-04-11T09:05:28.532Z,3092.00
2023-04-11T09:06:28.514Z,3036.00
2023-04-11T09:07:28.551Z,2768.00
2023-04-11T09:08:28.524Z,2768.00
2023-04-11T09:09:28.549Z,2916.00
2023-04-11T09:10:28.487Z,3220.00
2023-04-11T09:11:28.500Z,3164.00
2023-04-11T09:12:29.293Z,3216.00
2023-04-11T09:13:28.498Z,2864.00
2023-04-11T09:14:28.483Z,2444.00
2023-04-11T09:15:28.552Z,2240.00
2023-04-11T09:16:28.461Z,2300.00
2023-04-11T09:17:28.417Z,2476.00
2023-04-11T09:18:28.386Z,2848.00
2023-04-11T09:19:28.388Z,3108.00
2023-04-11T09:20:28.399Z,2944.00
2023-04-11T09:21:28.367Z,3048.00
2023-04-11T09:22:28.359Z,3360.00
2023-04-11T09:23:28.323Z,3356.00
2023-04-11T09:24:28.337Z,3256.00
2023-04-11T09:25:28.324Z,3468.00
2023-04-11T09:26:28.309Z,3844.00
2023-04-11T09:27:28.302Z,3596.00
2023-04-11T09:28:28.279Z,3684.00
2023-04-11T09:29:28.277Z,3168.00
2023-04-11T09:30:28.251Z,3200.00
2023-04-11T09:31:28.347Z,3164.00
2023-04-11T09:32:31.163Z,3032.00
2023-04-11T09:33:28.212Z,3452.00
2023-04-11T09:34:28.205Z,3132.00
2023-04-11T09:35:28.193Z,3568.00
2023-04-11T09:36:28.178Z,2800.00
2023-04-11T09:37:36.322Z,2792.00
2023-04-11T09:38:28.204Z,2528.00
2023-04-11T09:39:28.147Z,2584.00
2023-04-11T09:40:28.240Z,2648.00
2023-04-11T09:41:28.204Z,2772.00
2023-04-11T09:42:28.209Z,2896.00
2023-04-11T09:43:28.169Z,3284.00
2023-04-11T09:46:24.396Z,2944.00
2023-04-11T09:47:31.967Z,2856.00
2023-04-11T09:48:46.040Z,3064.00
2023-04-11T09:49:31.936Z,2492.00
2023-04-11T09:50:32.115Z,2988.00
2023-04-11T09:51:36.832Z,2812.00
2023-04-11T09:53:34.570Z,2992.00
2023-04-11T09:54:34.552Z,3520.00
2023-04-11T09:55:34.498Z,3220.00
2023-04-11T09:56:34.910Z,2940.00
2023-04-11T09:57:34.424Z,2680.00
2023-04-11T09:58:34.402Z,3580.00
2023-04-11T09:59:34.382Z,3180.00
2023-04-11T10:00:34.379Z,3608.00
2023-04-11T10:01:34.428Z,3608.00
2023-04-11T10:02:34.487Z,2816.00
2023-04-11T10:03:34.361Z,3804.00
2023-04-11T10:04:34.374Z,3640.00
2023-04-11T10:05:43.448Z,2824.00
2023-04-11T10:06:34.498Z,3568.00
2023-04-11T10:07:34.389Z,3440.00
2023-04-11T10:08:34.275Z,3408.00
2023-04-11T10:09:34.333Z,3332.00
2023-04-11T10:10:34.299Z,3500.00
2023-04-11T10:11:34.288Z,3532.00
2023-04-11T10:12:34.254Z,2664.00
2023-04-11T10:13:34.223Z,2968.00
2023-04-11T10:14:34.215Z,3040.00
2023-04-11T10:15:34.213Z,3008.00
2023-04-11T10:16:34.474Z,3620.00
2023-04-11T10:17:34.262Z,2884.00
2023-04-11T10:18:34.156Z,2984.00
2023-04-11T10:19:34.143Z,2952.00
2023-04-11T10:20:34.134Z,2820.00
2023-04-11T10:21:34.159Z,2688.00
2023-04-11T10:22:34.121Z,2692.00
2023-04-11T10:23:34.113Z,2656.00
2023-04-11T10:24:34.108Z,3388.00
2023-04-11T10:25:34.087Z,3668.00
2023-04-11T10:26:34.078Z,4012.00
2023-04-11T10:27:34.072Z,3072.00
2023-04-11T10:28:34.059Z,3432.00
2023-04-11T10:29:34.037Z,3268.00
2023-04-11T10:30:34.016Z,3460.00
2023-04-11T10:31:34.052Z,2872.00
2023-04-11T10:32:34.050Z,2732.00
2023-04-11T10:33:34.011Z,2604.00
2023-04-11T10:34:34.012Z,2348.00
2023-04-11T10:35:34.005Z,2472.00
2023-04-11T10:36:33.959Z,2628.00
2023-04-11T10:37:33.963Z,2864.00
2023-04-11T10:38:33.950Z,2924.00
2023-04-11T10:39:33.943Z,3276.00
2023-04-11T10:40:33.942Z,2996.00
2023-04-11T10:41:33.932Z,2588.00
2023-04-11T10:42:33.942Z,2440.00
2023-04-11T10:43:33.888Z,2312.00
2023-04-11T10:44:33.854Z,2280.00
2023-04-11T10:45:33.868Z,2272.00
2023-04-11T10:46:33.887Z,2320.00
2023-04-11T10:47:33.854Z,2532.00
2023-04-11T10:48:33.821Z,3636.00
2023-04-11T10:49:33.806Z,3900.00
2023-04-11T10:50:33.794Z,4192.00
2023-04-11T10:51:33.800Z,4232.00
2023-04-11T10:52:33.781Z,4332.00
2023-04-11T10:53:33.776Z,3508.00
2023-04-11T10:54:33.752Z,3424.00
2023-04-11T10:55:33.758Z,4132.00
2023-04-11T10:56:33.742Z,4476.00
2023-04-11T10:57:33.719Z,3324.00
2023-04-11T10:58:33.711Z,3984.00
2023-04-11T10:59:33.733Z,3088.00
2023-04-11T11:00:35.109Z,3856.00
2023-04-11T11:01:42.803Z,4132.00
2023-04-11T11:02:34.760Z,4696.00
2023-04-11T11:03:33.952Z,4256.00
2023-04-11T11:04:33.812Z,4588.00
2023-04-11T11:05:33.622Z,5060.00
2023-04-11T11:06:34.787Z,5192.00
2023-04-11T11:07:33.614Z,5036.00
2023-04-11T11:08:33.594Z,4652.00
2023-04-11T11:09:33.593Z,4104.00
2023-04-11T11:10:33.575Z,2896.00
2023-04-11T11:11:33.558Z,2924.00
2023-04-11T11:12:33.541Z,2404.00
2023-04-11T11:13:33.551Z,2140.00
2023-04-11T11:14:33.523Z,2060.00
2023-04-11T11:15:33.537Z,2052.00
2023-04-11T11:16:33.504Z,2904.00
2023-04-11T11:17:33.545Z,3284.00
2023-04-11T11:18:33.517Z,3200.00
2023-04-11T11:19:33.471Z,3552.00
2023-04-11T11:20:33.455Z,3800.00
2023-04-11T11:21:33.436Z,3460.00
2023-04-11T11:22:33.437Z,2920.00
2023-04-11T11:23:34.856Z,3188.00
2023-04-11T11:24:33.396Z,4304.00
2023-04-11T11:25:33.412Z,3420.00
2023-04-11T11:26:33.376Z,3752.00
2023-04-11T11:27:33.419Z,3468.00
2023-04-11T11:28:33.382Z,4160.00
2023-04-11T11:29:33.343Z,2544.00
2023-04-11T11:30:33.362Z,2300.00
2023-04-11T11:31:33.373Z,1952.00
2023-04-11T11:32:33.401Z,1672.00
2023-04-11T11:33:33.296Z,1708.00
2023-04-11T11:35:50.821Z,2432.00
2023-04-11T11:36:50.889Z,2704.00
2023-04-11T11:37:50.776Z,2728.00
2023-04-11T11:38:50.893Z,3036.00
2023-04-11T11:39:50.755Z,4128.00
2023-04-11T11:40:50.725Z,2340.00
2023-04-11T11:41:50.756Z,1288.00
2023-04-11T11:42:50.697Z,964.00
2023-04-11T11:43:50.689Z,736.00
2023-04-11T11:44:50.699Z,644.00
2023-04-11T11:45:50.692Z,836.00
2023-04-11T11:46:50.739Z,1172.00
2023-04-11T11:47:50.683Z,1588.00
2023-04-11T11:48:50.649Z,1864.00
2023-04-11T11:49:50.635Z,2312.00
2023-04-11T11:50:50.591Z,2884.00
2023-04-11T11:51:50.576Z,3160.00
2023-04-11T11:52:50.585Z,3432.00
2023-04-11T11:53:50.567Z,3056.00
2023-04-11T11:54:50.539Z,2588.00
2023-04-11T11:55:50.545Z,2384.00
2023-04-11T11:56:50.520Z,2316.00
2023-04-11T11:57:53.921Z,2340.00
2023-04-11T11:58:50.514Z,2368.00
2023-04-11T11:59:52.304Z,2356.00
2023-04-11T12:00:50.495Z,2252.00
2023-04-11T12:01:50.510Z,2060.00
2023-04-11T12:02:50.696Z,1904.00
2023-04-11T12:03:50.574Z,1676.00
2023-04-11T12:04:50.788Z,1432.00
2023-04-11T12:05:50.440Z,1256.00
2023-04-11T12:06:50.437Z,1312.00
2023-04-11T12:07:50.438Z,1324.00
2023-04-11T12:08:50.391Z,1276.00
2023-04-11T12:09:50.372Z,1236.00
2023-04-11T12:10:50.385Z,1320.00
2023-04-11T12:11:50.348Z,1408.00
2023-04-11T12:12:53.229Z,1428.00
2023-04-11T12:13:50.333Z,1576.00
2023-04-11T12:14:50.319Z,1656.00
2023-04-11T12:15:50.383Z,1692.00
2023-04-11T12:16:50.294Z,1764.00
2023-04-11T12:17:50.332Z,1780.00
2023-04-11T12:18:50.294Z,1860.00
2023-04-11T12:19:50.277Z,1936.00
2023-04-11T12:20:50.301Z,2096.00
2023-04-11T12:21:50.234Z,2184.00
2023-04-11T12:22:52.059Z,2296.00
2023-04-11T12:23:50.211Z,2376.00
2023-04-11T12:24:50.223Z,2476.00
2023-04-11T12:25:50.217Z,2528.00
2023-04-11T12:27:05.576Z,2552.00
2023-04-11T12:27:51.219Z,2568.00
2023-04-11T12:28:50.180Z,2608.00
2023-04-11T12:29:50.142Z,2624.00
2023-04-11T12:30:50.130Z,2616.00
2023-04-11T12:31:50.160Z,2620.00
2023-04-11T12:32:50.137Z,2672.00
2023-04-11T12:33:50.096Z,2696.00
2023-04-11T12:34:50.148Z,2744.00
2023-04-11T12:35:50.070Z,2776.00
2023-04-11T12:36:50.099Z,2808.00
2023-04-11T12:37:50.055Z,2832.00
2023-04-11T12:38:50.040Z,2884.00
2023-04-11T12:39:50.041Z,2940.00
2023-04-11T12:40:51.010Z,3044.00
2023-04-11T12:41:50.001Z,3176.00